Time;durP1;ratioP1;P1;durP2;ratioP2;P2;SDS_P1;SDS_P2;PMS_P1;PMS_P2;Temp;Humidity;BMP_temperature;BMP_pressure;BME280_temperature;BME280_humidity;BME280_pressure;Samples;Min_cycle;Max_cycle;Signal;HPM_P1;HPM_P2
2020/12/02 00:02:20;;;;;;;68.93;6.17;;;;;;;-0.94;90.37;95553.31;5030806;28;20204;-75
2020/12/02 00:04:47;;;;;;;135.00;10.97;;;;;;;-0.95;90.18;95553.38;5012328;28;20247;-75
2020/12/02 00:07:12;;;;;;;76.87;11.20;;;;;;;-0.95;90.14;95554.22;5010981;28;20221;-75
2020/12/02 00:09:37;;;;;;;55.60;11.07;;;;;;;-0.94;90.44;95545.66;5010432;28;20213;-75
2020/12/02 00:12:03;;;;;;;132.10;10.50;;;;;;;-0.94;90.28;95544.84;5012209;28;20205;-75
2020/12/02 00:14:30;;;;;;;39.63;7.27;;;;;;;-0.86;90.17;95541.00;5014928;28;20194;-75
2020/12/02 00:16:56;;;;;;;33.47;6.97;;;;;;;-0.87;90.25;95547.00;5047364;28;20188;-75
2020/12/02 00:19:22;;;;;;;15.83;5.47;;;;;;;-0.80;90.45;95550.03;5046507;28;20257;-75
2020/12/02 00:22:07;;;;;;;91.40;11.60;;;;;;;-0.89;90.22;95546.22;5030522;28;20170;-75
2020/12/02 00:24:34;;;;;;;65.53;9.53;;;;;;;-0.91;90.45;95545.47;5027952;28;20197;-75
2020/12/02 00:27:18;;;;;;;149.27;40.27;;;;;;;-0.93;90.28;95542.19;5031765;28;20265;-75
2020/12/02 00:29:44;;;;;;;109.83;11.63;;;;;;;-0.96;90.65;95546.66;5031285;28;20220;-75
2020/12/02 00:32:28;;;;;;;11.90;5.47;;;;;;;-0.89;90.36;95541.13;5013936;28;20563;-75
2020/12/02 00:34:53;;;;;;;76.93;8.50;;;;;;;-0.94;90.25;95545.66;5041844;28;20184;-75
2020/12/02 00:37:19;;;;;;;80.07;9.40;;;;;;;-0.91;90.25;95540.38;5030302;28;20189;-75
2020/12/02 00:39:44;;;;;;;92.43;9.07;;;;;;;-0.95;90.20;95538.09;5029517;28;20613;-75
2020/12/02 00:42:09;;;;;;;86.50;13.20;;;;;;;-0.99;90.19;95534.84;5030282;28;20208;-75
2020/12/02 00:44:35;;;;;;;135.67;20.60;;;;;;;-1.00;90.39;95535.75;5027517;28;20284;-75
2020/12/02 00:47:01;;;;;;;128.30;20.83;;;;;;;-0.97;90.10;95532.22;5028956;28;20560;-75
2020/12/02 00:49:26;;;;;;;68.20;11.63;;;;;;;-0.96;90.41;95536.44;5026762;28;20712;-75
2020/12/02 00:51:51;;;;;;;84.33;9.53;;;;;;;-0.98;90.53;95528.03;5009914;28;20214;-75
2020/12/02 00:54:16;;;;;;;93.90;11.53;;;;;;;-0.96;90.30;95521.16;5010347;28;20216;-75
2020/12/02 00:56:44;;;;;;;62.07;8.03;;;;;;;-0.93;90.39;95526.91;5020833;28;20211;-75
2020/12/02 00:59:36;;;;;;;32.40;6.80;;;;;;;-0.93;90.68;95519.25;5026651;28;20216;-75
2020/12/02 01:02:11;;;;;;;31.77;7.63;;;;;;;-0.92;90.34;95523.44;5009244;28;20293;-75
2020/12/02 01:04:37;;;;;;;33.87;6.97;;;;;;;-0.89;90.26;95525.00;5014589;28;20182;-75
2020/12/02 01:07:04;;;;;;;48.40;7.30;;;;;;;-0.88;90.44;95522.41;5020656;28;20672;-75
2020/12/02 01:09:29;;;;;;;40.40;10.77;;;;;;;-0.91;90.42;95514.91;5033693;28;20199;-75
2020/12/02 01:11:58;;;;;;;48.50;13.67;;;;;;;-0.91;90.58;95514.06;5050198;28;20295;-75
2020/12/02 01:14:25;;;;;;;22.17;7.03;;;;;;;-0.89;90.35;95513.09;5017515;28;20597;-75
2020/12/02 01:16:52;;;;;;;24.90;7.63;;;;;;;-0.90;90.17;95515.72;5013422;28;20194;-75
2020/12/02 01:19:24;;;;;;;21.40;8.83;;;;;;;-0.88;90.44;95519.84;5028953;28;20178;-75
2020/12/02 01:22:02;;;;;;;24.23;9.53;;;;;;;-0.88;90.33;95519.84;5033863;28;20194;-75
2020/12/02 01:24:39;;;;;;;29.97;10.50;;;;;;;-0.85;90.24;95518.88;5033959;28;20174;-75
2020/12/02 01:27:11;;;;;;;25.43;9.80;;;;;;;-0.88;90.34;95517.31;5032934;28;20182;-74
2020/12/02 01:29:37;;;;;;;26.63;10.90;;;;;;;-0.90;90.38;95520.81;5016040;28;20190;-75
2020/12/02 01:32:04;;;;;;;111.80;15.17;;;;;;;-0.82;90.28;95528.91;5033624;28;20296;-75
2020/12/02 01:34:29;;;;;;;46.07;12.30;;;;;;;-0.89;89.95;95520.72;5033527;28;20243;-75
2020/12/02 01:37:16;;;;;;;115.10;13.90;;;;;;;-0.98;89.74;95518.66;5050170;28;20529;-75
2020/12/02 01:40:05;;;;;;;77.37;13.23;;;;;;;-1.02;89.66;95514.63;5030437;28;20207;-75
2020/12/02 01:42:31;;;;;;;348.03;28.50;;;;;;;-1.08;89.87;95517.47;5034391;28;20218;-75
2020/12/02 01:44:56;;;;;;;272.87;19.70;;;;;;;-1.08;90.13;95512.38;5016619;28;20182;-75
2020/12/02 01:47:37;;;;;;;391.33;24.27;;;;;;;-1.12;90.26;95521.09;5033436;28;20185;-75
2020/12/02 01:50:07;;;;;;;125.73;14.67;;;;;;;-1.07;90.21;95513.22;5025925;28;20226;-75
2020/12/02 01:52:54;;;;;;;307.40;20.23;;;;;;;-1.13;90.16;95509.25;5033096;28;20295;-75
2020/12/02 01:55:25;;;;;;;484.07;30.00;;;;;;;-1.11;90.31;95506.63;5049855;28;20181;-75
2020/12/02 01:57:54;;;;;;;334.73;21.87;;;;;;;-1.08;90.42;95509.00;5033265;28;20177;-75
2020/12/02 02:00:27;;;;;;;360.40;25.70;;;;;;;-1.05;89.98;95511.44;5006748;28;20182;-75
2020/12/02 02:03:15;;;;;;;842.33;59.23;;;;;;;-1.11;90.25;95510.00;5049652;28;20260;-75
2020/12/02 02:05:58;;;;;;;254.67;23.10;;;;;;;-1.09;90.36;95507.38;5032865;28;20170;-75
2020/12/02 02:08:31;;;;;;;512.57;33.07;;;;;;;-1.18;90.48;95506.94;5032789;28;20185;-75
2020/12/02 02:10:58;;;;;;;368.87;27.10;;;;;;;-1.16;90.35;95510.22;5028909;28;20207;-75
2020/12/02 02:14:00;;;;;;;764.10;47.67;;;;;;;-1.24;90.64;95506.41;5012527;28;20214;-75
2020/12/02 02:16:33;;;;;;;335.93;27.70;;;;;;;-1.11;90.16;95504.91;5014202;28;20188;-75
2020/12/02 02:18:59;;;;;;;484.50;31.07;;;;;;;-1.18;90.29;95503.56;5029217;28;20225;-75
2020/12/02 02:21:33;;;;;;;469.77;39.37;;;;;;;-1.23;90.47;95503.00;5015250;28;20268;-75
2020/12/02 02:23:59;;;;;;;699.50;42.20;;;;;;;-1.27;90.72;95504.03;5048585;28;20189;-75
2020/12/02 02:26:28;;;;;;;315.57;21.67;;;;;;;-1.28;90.78;95500.66;5032533;28;20273;-75
2020/12/02 02:29:01;;;;;;;551.13;38.40;;;;;;;-1.33;90.36;95502.59;5032357;28;20649;-75
2020/12/02 02:31:28;;;;;;;608.93;41.60;;;;;;;-1.37;90.32;95503.66;5029403;28;20304;-75
2020/12/02 02:33:54;;;;;;;325.50;27.87;;;;;;;-1.31;90.52;95505.09;5015277;28;20295;-75
2020/12/02 02:36:23;;;;;;;631.13;41.67;;;;;;;-1.32;90.64;95503.47;5012665;28;20196;-75
2020/12/02 02:38:48;;;;;;;186.90;18.60;;;;;;;-1.34;91.14;95500.13;5013187;28;20204;-75
2020/12/02 02:41:13;;;;;;;454.23;31.57;;;;;;;-1.42;90.64;95497.97;5013824;28;20257;-75
2020/12/02 02:43:39;;;;;;;207.73;17.43;;;;;;;-1.34;90.67;95505.22;5023424;28;20673;-75
2020/12/02 02:46:05;;;;;;;356.23;23.30;;;;;;;-1.40;90.87;95497.91;5033513;28;20190;-75
2020/12/02 02:48:32;;;;;;;370.70;23.70;;;;;;;-1.43;90.72;95494.59;5031714;28;20178;-75
2020/12/02 02:50:58;;;;;;;274.67;19.23;;;;;;;-1.33;90.45;95494.13;5032282;28;20205;-75
2020/12/02 02:53:24;;;;;;;492.30;31.87;;;;;;;-1.30;90.68;95497.38;5026151;28;20225;-75
2020/12/02 02:55:50;;;;;;;457.50;31.43;;;;;;;-1.47;90.98;95484.66;5015562;28;20220;-75
2020/12/02 02:58:15;;;;;;;317.73;21.03;;;;;;;-1.45;90.85;95486.22;5031566;28;20246;-75
2020/12/02 03:00:41;;;;;;;178.27;15.70;;;;;;;-1.40;91.03;95487.72;5015386;28;20641;-75
2020/12/02 03:03:09;;;;;;;435.53;26.93;;;;;;;-1.43;90.62;95492.06;5015408;28;20606;-75
2020/12/02 03:05:34;;;;;;;94.47;12.43;;;;;;;-1.38;90.58;95498.66;5009467;28;20284;-75
2020/12/02 03:08:02;;;;;;;363.77;24.80;;;;;;;-1.45;90.73;95487.94;5028680;28;20717;-75
2020/12/02 03:10:34;;;;;;;431.33;27.80;;;;;;;-1.47;90.97;95488.03;5011489;28;20212;-75
2020/12/02 03:13:03;;;;;;;199.17;20.10;;;;;;;-1.46;90.40;95491.41;4995782;28;20692;-75
2020/12/02 03:15:30;;;;;;;226.17;18.93;;;;;;;-1.43;90.47;95481.88;5020637;28;20644;-75
2020/12/02 03:17:56;;;;;;;109.83;12.80;;;;;;;-1.39;90.59;95481.72;5028595;28;20182;-75
2020/12/02 03:20:29;;;;;;;185.33;16.43;;;;;;;-1.34;90.69;95488.22;5011147;28;20189;-75
2020/12/02 03:22:54;;;;;;;76.57;12.17;;;;;;;-1.24;90.63;95491.94;5011915;28;20210;-75
2020/12/02 03:25:24;;;;;;;192.00;16.53;;;;;;;-1.33;90.73;95482.22;5012525;28;20652;-75
2020/12/02 03:27:50;;;;;;;104.53;13.90;;;;;;;-1.29;90.71;95482.91;5030964;28;20554;-75
2020/12/02 03:30:17;;;;;;;159.93;15.57;;;;;;;-1.25;90.47;95476.75;5030674;28;20214;-75
2020/12/02 03:32:42;;;;;;;318.27;21.47;;;;;;;-1.30;90.23;95479.53;5031436;28;20205;-75
2020/12/02 03:35:08;;;;;;;50.77;10.83;;;;;;;-1.18;90.59;95478.09;5031409;28;20189;-75
2020/12/02 03:37:33;;;;;;;192.90;16.83;;;;;;;-1.21;90.72;95483.34;5024332;28;20640;-75
2020/12/02 03:39:59;;;;;;;196.77;17.43;;;;;;;-1.30;91.03;95483.81;5031115;28;20185;-75
2020/12/02 03:42:24;;;;;;;378.60;23.73;;;;;;;-1.33;90.47;95476.31;5014413;28;20204;-75
2020/12/02 03:44:49;;;;;;;346.07;24.40;;;;;;;-1.34;90.54;95479.75;5031300;28;20231;-75
2020/12/02 03:47:15;;;;;;;183.47;15.80;;;;;;;-1.33;90.53;95481.41;5028105;28;20200;-75
2020/12/02 03:49:40;;;;;;;87.53;14.53;;;;;;;-1.33;90.37;95487.31;5027476;28;20185;-75
2020/12/02 03:52:05;;;;;;;401.03;28.70;;;;;;;-1.39;90.28;95484.28;5010182;28;20257;-75
2020/12/02 03:54:31;;;;;;;301.30;22.37;;;;;;;-1.35;90.68;95485.75;5047114;28;20181;-75
2020/12/02 03:56:56;;;;;;;91.63;15.07;;;;;;;-1.36;90.40;95484.94;5031093;28;20573;-75
2020/12/02 03:59:21;;;;;;;286.17;24.93;;;;;;;-1.33;90.28;95478.84;5030816;28;20219;-75
2020/12/02 04:01:46;;;;;;;480.77;34.03;;;;;;;-1.42;90.52;95485.25;5030841;28;20292;-75
2020/12/02 04:04:12;;;;;;;296.10;22.90;;;;;;;-1.40;90.45;95482.63;5012746;28;20197;-75
2020/12/02 04:06:37;;;;;;;486.40;32.17;;;;;;;-1.46;90.53;95486.31;5030617;28;20718;-75
2020/12/02 04:09:03;;;;;;;494.97;32.30;;;;;;;-1.53;90.58;95482.41;5030049;28;20188;-75
2020/12/02 04:11:28;;;;;;;366.77;27.93;;;;;;;-1.45;90.61;95472.66;5047393;28;20256;-75
2020/12/02 04:13:54;;;;;;;571.13;41.53;;;;;;;-1.48;90.57;95473.66;5011597;28;20241;-75
2020/12/02 04:16:19;;;;;;;308.93;27.63;;;;;;;-1.35;90.79;95478.13;5028393;28;20666;-75
2020/12/02 04:18:45;;;;;;;529.93;36.40;;;;;;;-1.42;90.54;95473.31;5031436;28;20185;-74
2020/12/02 04:21:10;;;;;;;71.27;12.87;;;;;;;-1.39;90.72;95471.53;5030377;28;20176;-74
2020/12/02 04:23:35;;;;;;;610.83;41.87;;;;;;;-1.40;90.31;95464.81;5031761;28;20207;-75
2020/12/02 04:26:01;;;;;;;564.87;40.63;;;;;;;-1.45;91.10;95463.28;5022090;28;20195;-74
2020/12/02 04:28:26;;;;;;;327.93;27.60;;;;;;;-1.46;90.92;95471.84;5013826;28;20283;-75
2020/12/02 04:30:51;;;;;;;216.10;21.17;;;;;;;-1.43;90.65;95466.59;5031165;28;20672;-75
2020/12/02 04:33:17;;;;;;;588.10;47.00;;;;;;;-1.51;90.66;95463.59;5032026;28;20201;-75
2020/12/02 04:35:43;;;;;;;516.57;39.20;;;;;;;-1.46;90.53;95464.19;5027122;28;20193;-75
2020/12/02 04:38:08;;;;;;;177.07;19.50;;;;;;;-1.49;90.82;95461.81;5029671;28;20179;-75
2020/12/02 04:40:39;;;;;;;478.03;39.20;;;;;;;-1.51;90.74;95465.31;5013368;28;20180;-75
2020/12/02 04:43:19;;;;;;;396.73;33.90;;;;;;;-1.48;90.89;95468.56;5030330;28;20262;-75
2020/12/02 04:45:45;;;;;;;299.53;31.47;;;;;;;-1.49;91.28;95461.81;5026980;28;20229;-74
2020/12/02 04:48:14;;;;;;;408.03;36.90;;;;;;;-1.51;90.66;95462.78;5026708;28;20213;-75
2020/12/02 04:50:39;;;;;;;208.83;20.07;;;;;;;-1.46;90.34;95459.09;5030024;28;20665;-75
2020/12/02 04:53:18;;;;;;;301.53;27.73;;;;;;;-1.51;90.56;95458.50;5029700;28;20208;-74
2020/12/02 04:55:48;;;;;;;153.27;20.03;;;;;;;-1.50;90.58;95467.81;5013705;28;20233;-75
2020/12/02 04:58:31;;;;;;;180.07;23.93;;;;;;;-1.50;90.42;95464.44;5003082;28;20188;-75
2020/12/02 05:01:19;;;;;;;44.67;13.77;;;;;;;-1.51;90.62;95465.31;5026806;28;20177;-74
2020/12/02 05:03:57;;;;;;;58.43;13.67;;;;;;;-1.52;90.46;95458.59;5006357;28;20216;-75
2020/12/02 05:06:48;;;;;;;36.33;12.67;;;;;;;-1.59;90.37;95463.19;5011537;28;20191;-75
2020/12/02 05:09:17;;;;;;;36.00;12.57;;;;;;;-1.55;90.20;95454.47;5027960;28;20296;-75
2020/12/02 05:11:54;;;;;;;73.47;15.23;;;;;;;-1.57;90.21;95458.84;5028895;28;20254;-74
2020/12/02 05:14:19;;;;;;;31.87;13.27;;;;;;;-1.54;90.48;95462.94;4995611;28;20188;-74
2020/12/02 05:16:44;;;;;;;56.37;14.60;;;;;;;-1.57;89.83;95466.47;5012475;28;20245;-74
2020/12/02 05:19:20;;;;;;;60.47;14.90;;;;;;;-1.59;90.39;95459.78;5007718;28;20189;-75
2020/12/02 05:21:45;;;;;;;69.57;16.70;;;;;;;-1.60;90.59;95469.16;5005303;28;20181;-75
2020/12/02 05:24:18;;;;;;;39.67;16.67;;;;;;;-1.58;90.19;95467.38;5012214;28;20185;-75
2020/12/02 05:26:47;;;;;;;100.77;17.80;;;;;;;-1.52;90.11;95466.22;5029037;28;20830;-74
2020/12/02 05:29:41;;;;;;;86.77;16.93;;;;;;;-1.50;90.54;95474.63;5005136;28;20233;-74
2020/12/02 05:32:13;;;;;;;37.57;13.53;;;;;;;-1.57;90.57;95469.00;5028553;28;20243;-74
2020/12/02 05:34:38;;;;;;;62.53;15.97;;;;;;;-1.57;89.84;95474.09;5028340;28;20176;-75
2020/12/02 05:37:07;;;;;;;46.10;15.33;;;;;;;-1.53;90.18;95467.13;5012299;28;20181;-74
2020/12/02 05:39:35;;;;;;;90.30;18.83;;;;;;;-1.59;89.98;95469.97;4994122;28;20808;-74
2020/12/02 05:42:03;;;;;;;119.80;18.33;;;;;;;-1.60;90.04;95476.78;5028023;28;20201;-74
2020/12/02 05:44:32;;;;;;;165.27;19.30;;;;;;;-1.63;90.65;95479.50;5028375;28;20185;-74
2020/12/02 05:47:01;;;;;;;78.07;16.37;;;;;;;-1.64;90.68;95477.03;5027479;28;20229;-74
2020/12/02 05:49:51;;;;;;;112.33;19.00;;;;;;;-1.55;90.18;95472.31;5031669;28;20175;-74
2020/12/02 05:52:24;;;;;;;126.77;17.97;;;;;;;-1.58;89.94;95475.00;5031022;28;20282;-75
2020/12/02 05:54:55;;;;;;;38.93;14.87;;;;;;;-1.53;90.70;95475.59;5033057;28;20184;-74
2020/12/02 05:57:21;;;;;;;57.83;17.00;;;;;;;-1.45;90.47;95477.75;5052893;28;20714;-73
2020/12/02 05:59:48;;;;;;;147.27;20.07;;;;;;;-1.39;90.29;95479.19;5052708;28;20183;-74
2020/12/02 06:02:15;;;;;;;283.00;26.80;;;;;;;-1.51;90.23;95483.97;5048928;28;20291;-74
2020/12/02 06:04:40;;;;;;;304.70;28.47;;;;;;;-1.57;89.99;95484.28;5052413;28;20679;-75
2020/12/02 06:07:05;;;;;;;144.17;20.17;;;;;;;-1.51;90.64;95481.41;5053121;28;20176;-75
2020/12/02 06:09:43;;;;;;;112.23;18.57;;;;;;;-1.50;90.37;95478.00;5052847;28;20226;-76
2020/12/02 06:12:17;;;;;;;470.37;40.90;;;;;;;-1.50;90.29;95480.56;5050498;28;20223;-75
2020/12/02 06:14:42;;;;;;;550.17;46.00;;;;;;;-1.58;89.84;95484.38;5045341;28;20523;-75
2020/12/02 06:17:09;;;;;;;446.07;39.93;;;;;;;-1.66;90.68;95479.66;5036212;28;20179;-75
2020/12/02 06:19:38;;;;;;;768.00;56.87;;;;;;;-1.62;90.58;95475.22;5035852;28;20175;-75
2020/12/02 06:22:05;;;;;;;203.37;23.17;;;;;;;-1.59;90.53;95478.47;5049589;28;20208;-75
2020/12/02 06:24:46;;;;;;;75.87;18.50;;;;;;;-1.56;90.57;95470.66;5050262;28;20662;-75
2020/12/02 06:27:14;;;;;;;385.97;35.80;;;;;;;-1.55;90.59;95471.47;5016178;28;20181;-75
2020/12/02 06:30:01;;;;;;;95.57;19.33;;;;;;;-1.48;90.25;95467.72;5033265;28;20189;-75
2020/12/02 06:32:26;;;;;;;101.17;20.63;;;;;;;-1.47;90.63;95462.56;5035431;28;20299;-75
2020/12/02 06:35:15;;;;;;;387.37;37.87;;;;;;;-1.49;90.02;95466.91;5052153;28;20276;-75
2020/12/02 06:37:40;;;;;;;184.20;25.43;;;;;;;-1.48;89.96;95460.91;5035467;28;20212;-75
2020/12/02 06:40:06;;;;;;;98.20;22.13;;;;;;;-1.50;90.21;95461.91;5052164;28;20703;-75
2020/12/02 06:42:37;;;;;;;250.50;30.40;;;;;;;-1.57;90.39;95458.00;5048709;28;20209;-75
2020/12/02 06:45:24;;;;;;;244.53;28.10;;;;;;;-1.48;89.94;95447.34;5030883;28;20188;-74
2020/12/02 06:47:49;;;;;;;307.30;31.53;;;;;;;-1.52;89.66;95456.03;5032099;28;20181;-74
2020/12/02 06:50:16;;;;;;;354.27;33.77;;;;;;;-1.53;89.63;95460.31;5033162;28;20201;-75
2020/12/02 06:52:42;;;;;;;113.80;22.83;;;;;;;-1.52;90.18;95461.94;5015533;28;20673;-74
2020/12/02 06:55:15;;;;;;;85.40;22.47;;;;;;;-1.48;89.82;95458.38;5026265;28;20653;-73
2020/12/02 06:57:41;;;;;;;271.07;30.97;;;;;;;-1.50;89.62;95460.19;5035221;28;20176;-73
2020/12/02 07:00:19;;;;;;;266.43;29.73;;;;;;;-1.55;90.14;95462.13;5034510;28;20223;-74
2020/12/02 07:02:48;;;;;;;459.17;39.80;;;;;;;-1.62;89.98;95459.94;5051900;28;20193;-75
2020/12/02 07:05:28;;;;;;;160.20;24.43;;;;;;;-1.55;90.09;95453.66;5045991;28;20191;-75
2020/12/02 07:08:04;;;;;;;695.27;55.93;;;;;;;-1.72;89.93;95460.41;5034664;28;20179;-74
2020/12/02 07:10:30;;;;;;;223.30;25.43;;;;;;;-1.66;90.15;95456.75;5052591;28;20208;-74
2020/12/02 07:12:55;;;;;;;121.20;23.87;;;;;;;-1.64;90.47;95457.47;5051688;28;20231;-74
2020/12/02 07:15:22;;;;;;;272.87;35.77;;;;;;;-1.60;89.95;95458.16;5048923;28;20287;-74
2020/12/02 07:17:48;;;;;;;134.87;26.57;;;;;;;-1.56;90.17;95459.66;5043970;28;20183;-74
2020/12/02 07:20:15;;;;;;;466.27;39.20;;;;;;;-1.64;90.05;95462.56;5051011;28;20179;-73
2020/12/02 07:22:49;;;;;;;316.87;34.97;;;;;;;-1.64;90.16;95457.47;5052609;28;20339;-73
2020/12/02 07:25:15;;;;;;;84.40;23.37;;;;;;;-1.49;89.71;95451.63;5030953;28;20187;-73
2020/12/02 07:27:43;;;;;;;83.97;21.87;;;;;;;-1.48;89.87;95455.81;5045491;28;20186;-74
2020/12/02 07:30:29;;;;;;;131.97;24.43;;;;;;;-1.50;90.10;95465.28;5048395;28;20589;-74
2020/12/02 07:32:54;;;;;;;273.13;37.03;;;;;;;-1.48;90.14;95463.47;5051098;28;20191;-74
2020/12/02 07:35:22;;;;;;;433.03;39.83;;;;;;;-1.53;90.02;95462.84;5051176;28;20176;-74
2020/12/02 07:37:48;;;;;;;78.03;22.07;;;;;;;-1.39;89.81;95461.34;5038237;28;20562;-74
2020/12/02 07:40:34;;;;;;;83.37;23.50;;;;;;;-1.36;89.51;95476.47;5044380;28;20176;-74
2020/12/02 07:43:00;;;;;;;434.47;37.37;;;;;;;-1.56;89.75;95470.66;5031109;28;20278;-74
2020/12/02 07:45:29;;;;;;;149.00;26.50;;;;;;;-1.58;89.70;95472.47;5033219;28;20219;-74
2020/12/02 07:48:05;;;;;;;204.80;25.77;;;;;;;-1.59;89.71;95470.81;5044162;28;20675;-73
2020/12/02 07:50:30;;;;;;;157.57;25.00;;;;;;;-1.49;89.95;95469.47;5049268;28;20200;-74
2020/12/02 07:53:15;;;;;;;253.67;30.47;;;;;;;-1.50;89.61;95465.28;5050604;28;20551;-74
2020/12/02 07:55:44;;;;;;;464.57;40.83;;;;;;;-1.59;89.25;95460.63;5050763;28;20266;-74
2020/12/02 07:58:15;;;;;;;415.67;37.67;;;;;;;-1.62;89.83;95465.88;5046556;28;20231;-74
2020/12/02 08:00:43;;;;;;;305.60;35.73;;;;;;;-1.66;89.71;95471.19;5039636;28;20185;-74
2020/12/02 08:03:35;;;;;;;76.90;23.77;;;;;;;-1.52;89.53;95469.59;5030623;28;20208;-74
2020/12/02 08:06:10;;;;;;;413.13;38.77;;;;;;;-1.51;89.72;95466.13;5030848;28;20184;-74
2020/12/02 08:08:35;;;;;;;358.50;36.77;;;;;;;-1.51;89.82;95467.88;5029172;28;20203;-74
2020/12/02 08:11:11;;;;;;;316.47;39.40;;;;;;;-1.54;89.83;95468.84;5047326;28;20208;-74
2020/12/02 08:13:48;;;;;;;283.07;30.13;;;;;;;-1.56;89.85;95470.66;5050934;28;20197;-73
2020/12/02 08:16:27;;;;;;;200.47;27.60;;;;;;;-1.53;89.67;95473.03;5047077;28;20185;-74
2020/12/02 08:18:55;;;;;;;179.47;27.33;;;;;;;-1.36;89.87;95473.94;5024566;28;20188;-73
2020/12/02 08:21:23;;;;;;;162.90;26.40;;;;;;;-1.45;90.03;95463.28;5043179;28;20268;-74
2020/12/02 08:24:27;;;;;;;240.53;29.17;;;;;;;-1.48;89.77;95468.56;5049361;28;20204;-74
2020/12/02 08:26:53;;;;;;;159.73;27.87;;;;;;;-1.46;89.54;95464.19;5051252;28;20671;-74
2020/12/02 08:29:21;;;;;;;157.13;25.70;;;;;;;-1.45;89.77;95467.56;5049516;28;20291;-74
2020/12/02 08:31:59;;;;;;;183.03;25.73;;;;;;;-1.40;89.71;95465.63;5044719;28;20228;-74
2020/12/02 08:34:24;;;;;;;354.37;38.27;;;;;;;-1.43;89.71;95458.94;5046563;28;20183;-74
2020/12/02 08:36:52;;;;;;;354.57;38.37;;;;;;;-1.45;89.61;95463.28;5036353;28;20276;-74
2020/12/02 08:39:31;;;;;;;355.73;37.20;;;;;;;-1.34;89.73;95467.03;5049642;28;20277;-74
2020/12/02 08:41:57;;;;;;;148.97;25.70;;;;;;;-1.34;90.08;95464.47;5050330;28;20550;-75
2020/12/02 08:44:22;;;;;;;279.73;31.67;;;;;;;-1.37;89.68;95451.91;5033349;28;20195;-74
2020/12/02 08:46:56;;;;;;;239.23;26.77;;;;;;;-1.44;89.55;95459.84;5047540;28;20188;-74
2020/12/02 08:49:29;;;;;;;249.57;30.17;;;;;;;-1.42;89.95;95454.66;5048357;28;20188;-74
2020/12/02 08:51:54;;;;;;;538.23;44.83;;;;;;;-1.37;89.96;95454.44;5048707;28;20213;-74
2020/12/02 08:54:22;;;;;;;234.43;30.37;;;;;;;-1.23;89.65;95454.59;5037033;28;20191;-74
2020/12/02 08:56:48;;;;;;;514.27;45.80;;;;;;;-1.34;89.76;95450.00;5018620;28;20320;-74
2020/12/02 08:59:14;;;;;;;165.73;25.03;;;;;;;-1.30;89.25;95451.53;5041919;28;20193;-73
2020/12/02 09:01:39;;;;;;;405.40;36.77;;;;;;;-1.34;89.67;95446.66;5055670;28;20525;-73
2020/12/02 09:04:05;;;;;;;411.50;43.00;;;;;;;-1.36;89.42;95448.44;5041737;28;20251;-73
2020/12/02 09:06:30;;;;;;;406.87;44.60;;;;;;;-1.40;89.75;95452.06;5036855;28;20682;-74
2020/12/02 09:08:56;;;;;;;477.77;41.03;;;;;;;-1.32;89.65;95455.06;5032046;28;20220;-73
2020/12/02 09:11:27;;;;;;;442.93;39.77;;;;;;;-1.43;89.58;95453.84;5040731;28;20216;-73
2020/12/02 09:13:54;;;;;;;295.70;31.77;;;;;;;-1.45;89.53;95449.75;5044539;28;20207;-73
2020/12/02 09:16:24;;;;;;;432.50;41.27;;;;;;;-1.37;89.49;95446.81;5054528;28;20193;-74
2020/12/02 09:18:49;;;;;;;333.90;39.33;;;;;;;-1.32;90.19;95447.41;5035779;28;20190;-74
2020/12/02 09:21:15;;;;;;;297.13;35.20;;;;;;;-1.32;89.34;95447.41;5045575;28;20211;-74
2020/12/02 09:23:40;;;;;;;349.47;39.27;;;;;;;-1.28;89.88;95443.78;5028294;28;20209;-74
2020/12/02 09:26:06;;;;;;;426.60;40.83;;;;;;;-1.32;89.64;95442.31;5039362;28;20251;-74
2020/12/02 09:28:31;;;;;;;413.43;41.60;;;;;;;-1.32;89.80;95439.78;5044255;28;20353;-73
2020/12/02 09:30:56;;;;;;;445.13;43.47;;;;;;;-1.34;89.55;95434.72;5044660;28;20213;-73
2020/12/02 09:33:22;;;;;;;576.53;50.03;;;;;;;-1.32;89.30;95442.31;5045819;28;20669;-73
2020/12/02 09:35:47;;;;;;;368.07;41.60;;;;;;;-1.27;89.39;95440.34;5044473;28;20184;-74
2020/12/02 09:38:13;;;;;;;586.77;55.43;;;;;;;-1.38;89.59;95437.53;5052525;28;20269;-74
2020/12/02 09:40:38;;;;;;;488.43;43.23;;;;;;;-1.29;89.58;95447.25;5047019;28;20190;-73
2020/12/02 09:43:25;;;;;;;572.47;50.03;;;;;;;-1.39;89.71;95444.34;5050527;28;20215;-74
2020/12/02 09:46:04;;;;;;;311.53;37.97;;;;;;;-1.37;90.00;95439.16;5040176;28;20706;-73
2020/12/02 09:48:29;;;;;;;387.60;40.10;;;;;;;-1.36;89.62;95430.63;5047569;28;20184;-74
2020/12/02 09:50:55;;;;;;;170.30;28.20;;;;;;;-1.28;89.45;95431.06;5042429;28;20650;-74
2020/12/02 09:53:26;;;;;;;561.37;48.10;;;;;;;-1.32;89.57;95429.56;5045390;28;20218;-74
2020/12/02 09:55:52;;;;;;;114.97;22.13;;;;;;;-1.31;89.79;95429.50;5035442;28;20188;-73
2020/12/02 09:58:18;;;;;;;301.03;35.63;;;;;;;-1.21;89.36;95434.94;5042690;28;20263;-74
2020/12/02 10:00:43;;;;;;;242.07;32.00;;;;;;;-1.23;89.59;95429.94;5021824;28;20189;-74
2020/12/02 10:03:29;;;;;;;299.80;37.40;;;;;;;-1.21;89.66;95417.09;5057128;28;20227;-74
2020/12/02 10:06:00;;;;;;;373.40;44.73;;;;;;;-1.28;89.57;95411.50;5041205;28;20216;-74
2020/12/02 10:08:46;;;;;;;55.43;23.63;;;;;;;-1.09;89.59;95400.34;5039757;28;20684;-74
2020/12/02 10:11:20;;;;;;;126.83;28.13;;;;;;;-1.16;89.24;95405.75;5037188;28;20204;-74
2020/12/02 10:14:23;;;;;;;440.73;46.77;;;;;;;-1.26;89.13;95404.59;5040372;28;20210;-74
2020/12/02 10:17:18;;;;;;;74.07;27.53;;;;;;;-1.18;89.08;95397.38;5035151;28;20250;-74
2020/12/02 10:19:55;;;;;;;114.40;29.83;;;;;;;-1.17;88.92;95395.63;5044011;28;20185;-74
2020/12/02 10:22:34;;;;;;;120.00;28.57;;;;;;;-1.15;88.68;95389.59;5044098;28;20201;-74
2020/12/02 10:25:21;;;;;;;73.50;31.90;;;;;;;-1.17;88.62;95386.25;5026401;28;20239;-73
2020/12/02 10:28:05;;;;;;;49.77;25.83;;;;;;;-1.13;89.14;95386.13;5048349;28;20280;-73
2020/12/02 10:30:34;;;;;;;44.93;25.00;;;;;;;-1.19;88.28;95382.16;5038337;28;20212;-74
2020/12/02 10:33:25;;;;;;;49.40;24.10;;;;;;;-1.10;88.31;95376.56;5054827;28;20215;-74
2020/12/02 10:35:50;;;;;;;44.37;24.70;;;;;;;-1.12;88.71;95370.75;5039390;28;20189;-74
2020/12/02 10:38:32;;;;;;;50.23;23.43;;;;;;;-1.17;89.18;95365.88;5048120;28;20189;-74
2020/12/02 10:41:36;;;;;;;44.87;22.30;;;;;;;-1.11;88.70;95366.47;5037930;28;20542;-76
2020/12/02 10:44:19;;;;;;;56.73;24.93;;;;;;;-1.06;88.51;95357.69;5039240;28;20244;-75
2020/12/02 10:47:11;;;;;;;40.87;22.47;;;;;;;-1.06;88.50;95352.59;5047752;28;20190;-75
2020/12/02 10:49:37;;;;;;;42.97;21.67;;;;;;;-1.07;88.71;95361.13;5049656;28;20197;-75
2020/12/02 10:52:05;;;;;;;42.57;23.07;;;;;;;-1.06;87.92;95355.13;5026757;28;20240;-75
2020/12/02 10:54:34;;;;;;;47.47;22.63;;;;;;;-0.96;87.96;95348.63;5030920;28;20718;-75
2020/12/02 10:57:03;;;;;;;40.23;22.23;;;;;;;-1.08;87.82;95351.00;5040903;28;20204;-74
2020/12/02 10:59:28;;;;;;;40.90;21.67;;;;;;;-0.94;87.83;95341.72;5041378;28;20200;-75
2020/12/02 11:01:54;;;;;;;43.17;23.43;;;;;;;-1.00;87.52;95343.78;5052482;28;20200;-75
2020/12/02 11:04:21;;;;;;;46.47;22.77;;;;;;;-1.00;87.57;95342.03;5033200;28;20194;-75
2020/12/02 11:06:51;;;;;;;38.97;20.70;;;;;;;-0.92;87.63;95337.34;5043699;28;20684;-75
2020/12/02 11:09:59;;;;;;;40.57;22.37;;;;;;;-1.02;87.42;95328.56;5048555;28;20265;-75
2020/12/02 11:12:46;;;;;;;37.87;20.53;;;;;;;-0.99;87.54;95328.41;5042841;28;20224;-75
2020/12/02 11:15:28;;;;;;;122.73;27.03;;;;;;;-1.09;87.63;95322.16;5037056;28;20188;-75
2020/12/02 11:18:13;;;;;;;52.00;23.27;;;;;;;-1.07;87.86;95316.97;5028162;28;20312;-75
2020/12/02 11:20:52;;;;;;;263.70;32.23;;;;;;;-1.17;87.82;95314.91;5029984;28;20194;-76
2020/12/02 11:23:31;;;;;;;56.67;22.80;;;;;;;-1.05;87.77;95310.09;5036603;28;20207;-75
2020/12/02 11:26:24;;;;;;;55.03;23.13;;;;;;;-1.16;87.86;95311.47;5034631;28;20181;-75
2020/12/02 11:28:51;;;;;;;49.37;23.80;;;;;;;-1.27;88.40;95300.22;5042972;28;20309;-75
2020/12/02 11:31:52;;;;;;;54.73;28.47;;;;;;;-1.23;88.10;95299.97;5032431;28;20226;-75